Aviation Digital Data Service (ADDS)

Output produced by METARs form (1415 UTC 12 December 2017)
found at http://www.aviationweather.gov/adds/metars/
 
CYYZ 121400Z 28014G21KT 8SM -SN OVC035 M03/M05 A2952 RMK SC8 PCPN VRY LGT /S01/ SLP007
CYYZ 121324Z 28014G20KT 4SM -SN OVC018 M03/M04 A2952 RMK SC8 SLP006
CYYZ 121317Z 29017KT 1 3/4SM -SN OVC016 M03/M04 A2952 RMK SN3SC5 SLP006
CYYZ 121300Z 27006KT 1 1/4SM -SN OVC010 M03/M04 A2952 RMK SN3SC5 SLP006
CYYZ 121243Z 27008KT 4SM -SN SCT016 OVC022 M03/M04 A2952 RMK SC4SC4 SLP007
CYYZ 121232Z 28007KT 4SM -SN BKN012 OVC022 M03/M04 A2952 RMK SC5SC3 SLP006
CYYZ 121200Z 28007KT 4SM -SN OVC009 M03/M04 A2951 RMK SC8 /S04/ SLP005
TAF CYYZ 121138Z 1212/1318 33007KT 4SM -SN BKN008 OVC015 
     TEMPO 1212/1215 6SM -SN SCT010 OVC025 
     BECMG 1212/1214 30015G25KT 
     FM121500 30020G30KT P6SM -SN BKN030 OVC060 
     FM121700 29020G30KT P6SM SCT030 
     FM130200 33015G25KT P6SM -SHSN BKN025 
     TEMPO 1302/1305 2SM -SHSN BLSN OVC020 
     BECMG 1305/1307 33015KT 
     FM131600 31015KT P6SM FEW025 RMK NXT FCST BY 121500Z
       
CYKF 121413Z AUTO 28016G27KT 9SM -SN SCT018 BKN070 OVC087 M05/M08 A2954 RMK SLP020
CYKF 121410Z AUTO 28019G27KT 9SM SCT018 BKN070 OVC085 M05/M08 A2954 RMK SLP020
CYKF 121400Z AUTO 28016G27KT 7SM -SN BKN070 OVC083 M05/M08 A2954 RMK SLP020
CYKF 121351Z AUTO 28020G27KT 9SM -SN FEW055 OVC081 M05/M08 A2954 RMK SLP019
CYKF 121333Z AUTO 29018KT 9SM SCT065 OVC080 M05/M08 A2954 RMK SLP019
CYKF 121300Z AUTO 30016G23KT 9SM -SN BKN046 OVC065 M05/M07 A2953 RMK SLP018
CYKF 121244Z AUTO 29014G23KT 6SM -SN FEW016 OVC042 M05/M07 A2954 RMK SLP020
CYKF 121235Z AUTO 30015G26KT 5SM -SN SCT016 OVC038 M05/M07 A2954 RMK SLP019
CYKF 121228Z AUTO 30013G25KT 6SM -SN SCT016 SCT022 OVC036 M05/M06 A2953 RMK SLP018
CYKF 121214Z AUTO 30020G29KT 3SM -SN FEW014 SCT022 OVC028 M04/M06 A2953 RMK SLP016
CYKF 121210Z AUTO 30022G27KT 3SM -SN SCT014 BKN022 OVC028 M04/M06 A2953 RMK SLP016
CYKF 121200Z AUTO 30014G27KT 4SM -SN SCT012 SCT018 OVC028 M04/M05 A2952 RMK SLP013
CYKF 121147Z AUTO 31018G24KT 3SM -SN SCT014 SCT019 BKN028 OVC034 M03/M05 A2951 RMK SLP008
CYKF 121144Z AUTO 30012G19KT 3SM -SN SCT014 BKN019 BKN029 OVC034 M03/M04 A2951 RMK SLP009
CYKF 121143Z AUTO 30012G19KT 3SM -SN SCT014 SCT019 BKN026 OVC034 M03/M04 A2951 RMK SLP009
CYKF 121139Z AUTO 29014KT 3SM -SN SCT011 BKN019 BKN028 OVC034 M03/M04 A2951 RMK SLP009
TAF CYKF 121339Z 1214/1302 30018G28KT P6SM -SHSN BKN030 OVC060 
     TEMPO 1214/1217 21/2SM -SHSN BLSN BKN015 OVC030 
     FM121700 30020G30KT P6SM -SHSN BKN030 
     TEMPO 1217/1224 3SM -SHSN BLSN OVC030 
     BECMG 1222/1224 31015G25KT RMK FCST BASED ON AUTO OBS. NXT FCST BY 122000Z
       
CYBN 121400Z AUTO 28007KT 6SM -SN OVC019 M03/M05 A2950 RMK PCPN 1.0MM PAST HR SLP002
CYBN 121352Z AUTO 28006KT 6SM -SN OVC019 M03/M05 A2950
CYBN 121319Z AUTO 25007KT 8SM -SN OVC019 OVC036 OVC053 M03/M05 A2949
CYBN 121300Z AUTO 25008KT 9SM OVC019 OVC047 M03/M05 A2949 RMK SLP998
CYBN 121200Z AUTO 17003KT 2 1/2SM -SN OVC022 M04/M05 A2949 RMK SLP000
TAF AMD CYBN 121309Z 1213/1224 26008KT P6SM SCT020 BKN060 
     TEMPO 1213/1220 3SM -SN BKN020 OVC060 
     BECMG 1216/1218 29012G22KT 
     FM122200 33015G25KT 6SM -SHSN OVC020 
     TEMPO 1222/1224 3/4SM -SHSN VV008 RMK FCST BASED ON AUTO OBS. NXT FCST BY 121800Z
       
CYXU 121400Z 29014G23KT 5SM -SHSN BLSN FEW015 BKN030 M07/M10 A2963 RMK SF2CU4 SLP051
CYXU 121300Z 30013G20KT 6SM -SHSN BLSN BKN023 M05/M09 A2962 RMK CU7 SLP045
CYXU 121236Z 29015G26KT 2 1/2SM -SHSN BLSN OVC020 M05/M08 A2961 RMK CU8 SLP042
CYXU 121216Z 30015G24KT 5SM -SHSN BLSN FEW010 OVC020 M05/M08 A2961 RMK SF2CU6 SLP041
CYXU 121200Z 30015G23KT 2SM -SHSN BLSN BKN010 OVC015 M04/M07 A2959 RMK SN2SF3CU3 SLP037
CYXU 121131Z 31014G25KT 2 1/2SM -SN BLSN BKN011 OVC016 M04/M06 A2958 RMK SN2SC3SC3 SLP031
TAF AMD CYXU 121319Z 1213/1312 30017G27KT 6SM -SHSN BLSN SCT008 OVC015 
     TEMPO 1213/1220 21/2SM -SHSN BLSN OVC008 
     PROB30 1216/1220 1SM -SN VV009 
     FM122000 29020G30KT 11/2SM -SHSN BLSN OVC015 
     PROB30 1220/1302 3/8SM SN BLSN VV008 
     FM130400 32008KT 4SM -SHSN OVC020 
     PROB30 1304/1312 11/2SM -SHSN VV012 RMK NXT FCST BY 121800Z
       
CYHM 121400Z 28014G21KT 15SM -SN DRSN SCT048 OVC054 M04/M08 A2955 RMK SC3SC5 SLP021
CYHM 121300Z 29014G26KT 2SM -SN DRSN BKN018 OVC042 M04/M05 A2954 RMK SN2SC3SC3 SLP017
CYHM 121253Z 29016G26KT 1 3/4SM -SN DRSN BKN013 OVC030 M03/M05 A2953 RMK SN2SC3SC3 SLP014
CYHM 121234Z 29012KT 1 3/4SM -SN SCT014 BKN032 OVC042 M03/M04 A2953 RMK SN2SC2SC3SC1 SLP013
CYHM 121200Z CCA 27008KT 4SM -SN BKN045 BKN055 M04/M04 A2952 RMK SN1SC4SC2 SLP008
TAF CYHM 121138Z 1212/1312 27010KT 6SM -SN SCT030 OVC050 
     TEMPO 1212/1214 21/2SM -SN BLSN OVC025 
     BECMG 1212/1214 30015G25KT 
     FM121400 29020G35KT P6SM -SN SCT030 OVC050 
     TEMPO 1214/1216 3SM -SHSN BLSN OVC030 
     FM121900 30020G30KT P6SM SCT050 
     BECMG 1220/1222 29015KT RMK NXT FCST BY 121800Z
       
CYQA 121400Z AUTO 11005KT 1SM -SN OVC021 M09/M10 A2946 RMK SLP997
CYQA 121346Z AUTO 11005KT 1 1/4SM -SN OVC021 M09/M10 A2947 RMK SLP998
CYQA 121337Z AUTO 12005KT 080V140 2 1/4SM -SN OVC019 M09/M10 A2947 RMK VIS VRB 1 1/2-3 SLP999
CYQA 121331Z AUTO 12005KT 2 1/2SM -SN OVC019 M09/M10 A2947 RMK VIS VRB 1 3/4-3 SLP999
CYQA 121319Z AUTO 13005KT 2SM -SN BKN019 OVC025 M09/M10 A2947 RMK SLP999
CYQA 121317Z AUTO 13006KT 080V140 2 1/2SM -SN SCT019 OVC025 M09/M10 A2947 RMK VIS VRB 1 1/2-3 SLP999
CYQA 121314Z AUTO 12006KT 3SM -SN SCT019 OVC025 M09/M10 A2947 RMK SLP999
CYQA 121312Z AUTO 12006KT 3SM -SN BKN023 OVC028 M09/M10 A2947 RMK SLP999
CYQA 121305Z AUTO 11006KT 080V140 3SM -SN OVC025 M09/M10 A2947 RMK SLP998
CYQA 121300Z AUTO 11007KT 2 1/2SM -SN OVC025 M09/M10 A2947 RMK VIS VRB 2-3 SLP998
CYQA 121257Z AUTO 10007KT 2 1/2SM -SN OVC025 M09/M10 A2947 RMK VIS VRB 2-3 SLP998
CYQA 121200Z AUTO 12006KT 2SM -SN OVC033 M08/M10 A2948 RMK VIS VRB 1 1/2-3 SLP004
CYQA 121159Z AUTO 11005KT 2SM -SN OVC033 M08/M10 A2948 RMK VIS VRB 1 1/2-3 SLP004
CYQA 121146Z AUTO 11006KT 080V140 2 1/2SM -SN FEW023 OVC035 M08/M10 A2948 RMK VIS VRB 1 3/4-3 SLP004
CYQA 121130Z AUTO 11006KT 2SM -SN SCT023 OVC035 M08/M10 A2949 RMK VIS VRB 1 1/2-3 SLP006
TAF AMD CYQA 121413Z 1214/1301 11006KT 1SM -SN OVC020 
     TEMPO 1214/1220 6SM -SN OVC030 
     FM122000 03010KT 6SM -SN OVC030 
     TEMPO 1220/1301 2SM -SN OVC020 RMK FCST BASED ON AUTO OBS. NXT FCST BY 122000Z
       
CYVV 121400Z 29010G24KT 6SM -SN BLSN OVC009 M09/M10 A2958 RMK ST8 SLP032
CYVV 121300Z 30009G16KT 6SM -SN OVC009 M08/M09 A2956 RMK ST8 SLP024
CYVV 121253Z 30009G19KT 280V340 6SM -SN OVC009 M07/M08 A2955 RMK ST8 SLP023
CYVV 121200Z 32013G21KT 6SM -SN SCT009 OVC018 M06/M06 A2953 RMK SF4SC4 /S03/ PRESRR SLP013
TAF CYVV 121338Z 1214/1224 31010G21KT 6SM -SN OVC025 
     TEMPO 1214/1224 2SM -SN BLSN OVC008 
     BECMG 1214/1216 33015G25KT RMK NXT FCST BY 122000Z
       
CYZR 121400Z AUTO 31022G32KT 9SM SCT033 M08/M14 A2976 RMK ICG INTMT SLP090
CYZR 121354Z AUTO 32022G34KT 9SM SCT035 M08/M14 A2976 RMK ICG SLP089
CYZR 121353Z AUTO 31022G34KT 9SM SCT035 M08/M14 A2976 RMK ICG PAST HR SLP090
CYZR 121335Z AUTO 31019G31KT 9SM SCT039 M08/M14 A2975 RMK ICG SLP086
CYZR 121334Z AUTO 31021G31KT 9SM SCT039 M08/M14 A2975 RMK ICG PAST HR SLP087
CYZR 121316Z AUTO 31025G33KT 9SM FEW024 BKN037 M07/M13 A2975 RMK ICG SLP085
CYZR 121315Z AUTO 31023G33KT 9SM FEW027 BKN037 M07/M13 A2975 RMK ICG PAST HR SLP085
CYZR 121302Z AUTO 32024G37KT 9SM SCT023 BKN028 OVC037 M07/M13 A2975 RMK ICG INTMT SLP084
CYZR 121300Z AUTO 32024G37KT 9SM -SN SCT023 BKN028 OVC037 M07/M13 A2974 RMK ICG SLP082
CYZR 121254Z AUTO 32023G37KT 9SM -SN SCT023 BKN028 OVC035 M07/M11 A2974 RMK ICG INTMT SLP082
CYZR 121253Z AUTO 32025G37KT 9SM -SN BKN023 BKN030 OVC038 M07/M11 A2974 RMK ICG INTMT SLP082
CYZR 121252Z AUTO 33029G37KT 9SM -SN SCT023 BKN030 OVC038 M07/M12 A2974 RMK ICG INTMT SLP081
CYZR 121247Z AUTO 33024G32KT 8SM -SN BKN023 BKN033 OVC040 M07/M10 A2974 RMK ICG INTMT SLP081
CYZR 121240Z AUTO 33020G29KT 9SM -SN BKN026 OVC034 M07/M10 A2973 RMK ICG SLP079
CYZR 121238Z AUTO 33022G29KT 9SM -SN BKN024 OVC032 M06/M10 A2973 RMK ICG SLP079
CYZR 121237Z AUTO 33024G29KT 9SM -SN BKN024 OVC032 M06/M10 A2973 RMK ICG PAST HR SLP079
CYZR 121201Z AUTO 32020G32KT 9SM -SN BKN027 M06/M10 A2972 RMK ICG SLP073
CYZR 121200Z AUTO 31021G32KT 9SM BKN027 M06/M10 A2971 RMK ICG SLP072
CYZR 121132Z AUTO 32024G35KT 9SM BKN030 BKN065 M06/M10 A2970 RMK ICG INTMT SLP067
TAF CYZR 121341Z 1214/1302 31015G31KT P6SM SCT030 
     TEMPO 1214/1220 11/2SM -SN BLSN BKN013 
     FM122000 34020G35KT P6SM BKN030 
     TEMPO 1220/1224 3SM -SN BLSN OVC020 
     FM130000 31024G34KT P6SM FEW050 
     TEMPO 1300/1302 BKN050 RMK FCST BASED ON AUTO OBS. NXT FCST BY 122000Z
       
CYPQ 121400Z AUTO 04006KT 8SM -SN FEW034 BKN044 OVC055 M08/M09 A2951 RMK SLP006
CYPQ 121355Z AUTO 03005KT 6SM -SN SCT032 BKN040 OVC050 M08/M09 A2951 RMK SLP006
CYPQ 121300Z AUTO 05006KT 4SM -SN FEW015 OVC035 M08/M10 A2952 RMK SLP008
CYPQ 121200Z AUTO 03005KT 5SM -SN SCT016 OVC045 M08/M09 A2953 RMK SLP014
CYPQ 121136Z AUTO 05004KT 3SM -SN OVC038 M08/M09 A2953 RMK SLP015
CYPQ 121131Z AUTO 04008KT 2 1/2SM -SN OVC034 M08/M09 A2953 RMK SLP013
TAF CYPQ 121339Z 1214/1302 03005KT 11/2SM -SN BKN006 OVC012 
     TEMPO 1214/1216 6SM -SN SCT008 OVC030 
     FM121600 29007KT 6SM -SN SCT012 OVC025 
     TEMPO 1216/1220 2SM -SHSN OVC012 
     PROB30 1216/1219 1SM -SHSN VV008 
     FM122000 26010G20KT P6SM SCT015 BKN040 
     TEMPO 1220/1302 3SM -SHSN BKN015 OVC040 
     BECMG 1222/1223 24005KT RMK FCST BASED ON AUTO OBS. NXT FCST BY 122000Z
       
CWLS 121400Z AUTO 31012G20KT M07/M09 RMK AO1 SOG 14 3010 PK WND 31023/1350 SLP021 T10731086
CWLS 121300Z AUTO 28011G18KT M06/M07 RMK AO1 SOG 13 3006 PK WND 30020/1212 SLP015 T10611069
CWLS 121200Z AUTO 29009G15KT M06/M07 RMK AO1 SOG 13 5000 PK WND 29019/1111 SLP012 T10551067
CWCO 121400Z AUTO 29012G19KT M04/M06 RMK AO1 3PAST HR 3009 PK WND 29019/1353 SLP008 P0001 T10431061 50005
CWCO 121300Z AUTO 29008KT M03/M04 RMK AO1 2PAST HR 5002 SLP999 P0001 T10261044 50002
CWCO 121200Z AUTO 27007KT M02/M04 RMK AO1 6015 SLP995 T10211041 50004